createdAt,value
2022-11-06T00:01:47.048Z,89.80
2022-11-06T00:04:14.448Z,89.70
2022-11-06T00:06:47.773Z,90.10
2022-11-06T00:09:18.263Z,90.10
2022-11-06T00:11:46.371Z,90.00
2022-11-06T00:14:14.125Z,90.00
2022-11-06T00:16:42.755Z,89.60
2022-11-06T00:19:10.449Z,90.00
2022-11-06T00:21:38.162Z,90.30
2022-11-06T00:24:07.237Z,89.80
2022-11-06T00:26:35.281Z,90.00
2022-11-06T00:29:04.611Z,90.30
2022-11-06T00:31:37.413Z,90.60
2022-11-06T00:34:09.852Z,90.50
2022-11-06T00:36:37.140Z,90.20
2022-11-06T00:39:04.498Z,90.00
2022-11-06T00:41:31.744Z,90.10
2022-11-06T00:44:00.734Z,90.20
2022-11-06T00:46:28.225Z,89.90
2022-11-06T00:48:56.379Z,90.30
2022-11-06T00:51:28.236Z,90.40
2022-11-06T00:53:57.477Z,90.60
2022-11-06T00:56:25.571Z,90.00
2022-11-06T00:58:53.593Z,90.00
2022-11-06T01:01:22.965Z,90.30
2022-11-06T01:03:56.537Z,90.10
2022-11-06T01:06:26.965Z,90.40
2022-11-06T01:08:54.575Z,90.10
2022-11-06T01:11:24.996Z,90.80
2022-11-06T01:13:55.282Z,90.20
2022-11-06T01:16:24.345Z,90.40
2022-11-06T01:18:53.372Z,90.20
2022-11-06T01:21:26.898Z,90.10
2022-11-06T01:24:02.901Z,90.40
2022-11-06T01:26:38.352Z,90.80
2022-11-06T01:29:09.393Z,90.20
2022-11-06T01:31:37.087Z,90.60
2022-11-06T01:34:04.842Z,90.50
2022-11-06T01:36:32.449Z,90.20
2022-11-06T01:39:02.885Z,90.10
2022-11-06T01:41:46.092Z,90.30
2022-11-06T01:44:35.294Z,90.20
2022-11-06T01:47:05.018Z,90.60
2022-11-06T01:49:38.388Z,90.90
2022-11-06T01:52:11.666Z,90.50
2022-11-06T01:54:41.624Z,90.50
2022-11-06T01:57:10.532Z,90.60
2022-11-06T01:59:41.339Z,90.10
2022-11-06T02:02:08.941Z,90.30
2022-11-06T02:04:43.306Z,90.20
2022-11-06T02:07:12.105Z,91.00
2022-11-06T02:09:40.164Z,90.30
2022-11-06T02:12:33.382Z,90.20
2022-11-06T02:15:39.432Z,90.80
2022-11-06T02:18:33.371Z,90.50
2022-11-06T02:21:22.434Z,91.10
2022-11-06T02:23:52.754Z,90.30
2022-11-06T02:26:41.747Z,90.60
2022-11-06T02:29:19.484Z,90.40
2022-11-06T02:31:50.859Z,90.60
2022-11-06T02:34:20.447Z,90.70
2022-11-06T02:37:00.309Z,90.40
2022-11-06T02:39:29.561Z,90.40
2022-11-06T02:41:58.749Z,90.20
2022-11-06T02:44:29.191Z,90.20
2022-11-06T02:47:01.147Z,90.30
2022-11-06T02:49:34.432Z,90.80
2022-11-06T02:52:08.458Z,90.40
2022-11-06T02:54:39.982Z,90.60
2022-11-06T02:57:15.581Z,90.30
2022-11-06T03:00:09.717Z,90.70
2022-11-06T03:02:45.559Z,90.40
2022-11-06T03:05:34.685Z,90.50
2022-11-06T03:08:12.687Z,90.80
2022-11-06T03:10:51.808Z,90.70
2022-11-06T03:13:44.317Z,90.70
2022-11-06T03:16:40.160Z,90.20
2022-11-06T03:19:14.953Z,90.40
2022-11-06T03:21:56.299Z,90.70
2022-11-06T03:24:47.891Z,90.50
2022-11-06T03:27:37.044Z,90.40
2022-11-06T03:30:06.586Z,90.90
2022-11-06T03:32:58.786Z,90.10
2022-11-06T03:35:40.487Z,90.60
2022-11-06T03:38:13.588Z,91.00
2022-11-06T03:40:47.082Z,90.00
2022-11-06T03:43:18.976Z,90.80
2022-11-06T03:45:48.691Z,90.90
2022-11-06T03:48:25.893Z,90.50
2022-11-06T03:51:06.902Z,90.70
2022-11-06T03:53:46.695Z,91.20
2022-11-06T03:56:21.702Z,90.90
2022-11-06T03:58:50.332Z,90.80
2022-11-06T04:01:23.935Z,90.90
2022-11-06T04:04:12.227Z,90.90
2022-11-06T04:07:05.911Z,90.80
2022-11-06T04:09:55.558Z,91.00
2022-11-06T04:13:04.583Z,90.50
2022-11-06T04:15:38.633Z,91.10
2022-11-06T04:18:14.028Z,90.90
2022-11-06T04:21:12.378Z,90.80
2022-11-06T04:24:17.277Z,90.80
2022-11-06T04:26:53.104Z,90.80
2022-11-06T04:29:52.650Z,91.00
2022-11-06T04:32:28.874Z,90.70
2022-11-06T04:35:10.643Z,90.20
2022-11-06T04:37:53.855Z,90.50
2022-11-06T04:40:34.106Z,90.50
2022-11-06T04:43:06.435Z,90.80
2022-11-06T04:45:39.769Z,90.90
2022-11-06T04:48:08.692Z,90.70
2022-11-06T04:50:42.258Z,90.60
2022-11-06T04:53:11.394Z,90.90
2022-11-06T04:55:56.789Z,90.70
2022-11-06T04:58:24.056Z,90.80
2022-11-06T05:00:51.553Z,90.40
2022-11-06T05:03:19.170Z,90.40
2022-11-06T05:05:46.843Z,90.50
2022-11-06T05:08:16.673Z,90.70
2022-11-06T05:10:45.235Z,90.40
2022-11-06T05:13:13.587Z,90.90
2022-11-06T05:15:41.117Z,90.60
2022-11-06T05:18:08.880Z,90.50
2022-11-06T05:20:36.296Z,90.70
2022-11-06T05:23:03.741Z,90.30
2022-11-06T05:25:34.068Z,90.60
2022-11-06T05:28:02.497Z,90.50
2022-11-06T05:30:29.820Z,90.40
2022-11-06T05:32:57.128Z,90.70
2022-11-06T05:35:24.575Z,90.30
2022-11-06T05:37:58.302Z,90.40
2022-11-06T05:40:25.694Z,90.20
2022-11-06T05:42:52.991Z,90.30
2022-11-06T05:45:20.279Z,90.60
2022-11-06T05:47:47.638Z,90.80
2022-11-06T05:50:15.044Z,90.70
2022-11-06T05:52:42.400Z,90.50
2022-11-06T05:55:14.452Z,90.80
2022-11-06T05:57:42.572Z,90.60
2022-11-06T06:00:10.942Z,90.20
2022-11-06T06:02:41.406Z,90.20
2022-11-06T06:05:09.118Z,90.20
2022-11-06T06:07:36.412Z,90.30
2022-11-06T06:10:04.103Z,90.20
2022-11-06T06:12:31.379Z,90.20
2022-11-06T06:14:58.691Z,90.10
2022-11-06T06:17:26.107Z,90.10
2022-11-06T06:19:53.840Z,90.50
2022-11-06T06:22:21.128Z,90.20
2022-11-06T06:24:48.622Z,90.10
2022-11-06T06:27:16.084Z,90.50
2022-11-06T06:29:43.400Z,90.20
2022-11-06T06:32:10.731Z,90.30
2022-11-06T06:34:38.036Z,90.20
2022-11-06T06:37:05.360Z,90.50
2022-11-06T06:39:32.663Z,90.20
2022-11-06T06:41:59.947Z,90.10
2022-11-06T06:44:27.900Z,90.20
2022-11-06T06:46:55.218Z,90.20
2022-11-06T06:49:22.602Z,90.10
2022-11-06T06:51:50.396Z,90.80
2022-11-06T06:54:17.687Z,90.30
2022-11-06T06:56:45.018Z,90.40
2022-11-06T06:59:12.429Z,90.70
2022-11-06T07:01:39.818Z,90.30
2022-11-06T07:04:07.247Z,90.20
2022-11-06T07:06:34.497Z,90.30
2022-11-06T07:09:01.885Z,90.60
2022-11-06T07:11:29.174Z,90.70
2022-11-06T07:13:56.498Z,90.70
2022-11-06T07:16:25.265Z,90.60
2022-11-06T07:18:52.539Z,90.30
2022-11-06T07:21:19.822Z,90.40
2022-11-06T07:23:47.310Z,90.70
2022-11-06T07:26:14.595Z,90.20
2022-11-06T07:28:41.895Z,90.30
2022-11-06T07:31:10.530Z,90.90
2022-11-06T07:33:37.803Z,90.70
2022-11-06T07:36:07.676Z,90.40
2022-11-06T07:38:36.010Z,90.40
2022-11-06T07:41:05.715Z,90.90
2022-11-06T07:43:33.640Z,90.40
2022-11-06T07:46:03.050Z,90.60
2022-11-06T07:48:31.432Z,90.80
2022-11-06T07:51:02.001Z,90.50
2022-11-06T07:53:29.357Z,90.60
2022-11-06T07:55:57.034Z,90.40
2022-11-06T07:58:25.167Z,90.90
2022-11-06T08:00:54.676Z,90.60
2022-11-06T08:03:23.286Z,90.60
2022-11-06T08:05:50.717Z,90.60
2022-11-06T08:08:18.254Z,90.70
2022-11-06T08:10:47.598Z,90.80
2022-11-06T08:13:17.386Z,90.40
2022-11-06T08:15:45.050Z,91.20
2022-11-06T08:18:13.096Z,90.30
2022-11-06T08:20:40.960Z,90.00
2022-11-06T08:23:11.318Z,89.60
2022-11-06T08:25:40.308Z,89.50
2022-11-06T08:28:07.666Z,89.30
2022-11-06T08:30:35.082Z,90.10
2022-11-06T08:33:04.382Z,88.90
2022-11-06T08:35:33.704Z,89.10
2022-11-06T08:38:01.036Z,89.90
2022-11-06T08:40:31.215Z,89.10
2022-11-06T08:43:03.700Z,88.90
2022-11-06T08:45:31.571Z,89.70
2022-11-06T08:48:03.812Z,89.40
2022-11-06T08:50:32.132Z,89.30
2022-11-06T08:53:03.947Z,89.20
2022-11-06T08:55:32.481Z,88.80
2022-11-06T08:58:00.388Z,88.60
2022-11-06T09:00:27.925Z,88.60
2022-11-06T09:03:07.488Z,88.80
2022-11-06T09:05:34.915Z,89.00
2022-11-06T09:08:02.310Z,88.90
2022-11-06T09:10:29.735Z,89.80
2022-11-06T09:12:59.100Z,88.70
2022-11-06T09:15:27.795Z,88.60
2022-11-06T09:17:55.552Z,88.70
2022-11-06T09:20:24.820Z,88.90
2022-11-06T09:22:52.614Z,88.20
2022-11-06T09:25:19.973Z,88.80
2022-11-06T09:27:54.314Z,87.70
2022-11-06T09:30:25.968Z,88.30
2022-11-06T09:32:55.565Z,87.80
2022-11-06T09:35:24.531Z,87.50
2022-11-06T09:37:51.859Z,87.40
2022-11-06T09:40:39.241Z,87.40
2022-11-06T09:43:12.656Z,87.30
2022-11-06T09:45:41.205Z,87.60
2022-11-06T09:48:35.324Z,87.30
2022-11-06T09:51:31.964Z,87.00
2022-11-06T09:54:37.581Z,87.00
2022-11-06T09:57:11.575Z,87.20
2022-11-06T09:59:41.470Z,87.30
2022-11-06T10:02:36.191Z,86.80
2022-11-06T10:05:26.824Z,87.30
2022-11-06T10:08:00.285Z,87.20
2022-11-06T10:10:46.498Z,88.10
2022-11-06T10:13:43.849Z,87.90
2022-11-06T10:16:39.880Z,87.10
2022-11-06T10:19:33.695Z,88.50
2022-11-06T10:22:14.898Z,87.00
2022-11-06T10:25:01.840Z,87.10
2022-11-06T10:27:42.000Z,86.80
2022-11-06T10:30:15.724Z,86.80
2022-11-06T10:32:53.061Z,87.20
2022-11-06T10:35:20.541Z,86.80
2022-11-06T10:38:12.377Z,87.90
2022-11-06T10:40:42.895Z,87.00
2022-11-06T10:43:35.509Z,86.80
2022-11-06T10:46:17.854Z,87.30
2022-11-06T10:48:50.979Z,86.80
2022-11-06T10:51:37.584Z,87.50
2022-11-06T10:54:26.556Z,86.40
2022-11-06T10:57:09.019Z,86.30
2022-11-06T10:59:36.514Z,86.30
2022-11-06T11:02:04.927Z,86.50
2022-11-06T11:04:32.717Z,86.20
2022-11-06T11:07:18.866Z,86.20
2022-11-06T11:09:51.926Z,86.30
2022-11-06T11:12:27.354Z,85.90
2022-11-06T11:15:14.633Z,86.40
2022-11-06T11:17:43.400Z,86.10
2022-11-06T11:20:31.694Z,86.00
2022-11-06T11:23:07.492Z,86.60
2022-11-06T11:25:35.136Z,86.00
2022-11-06T11:28:05.081Z,86.10
2022-11-06T11:30:32.582Z,85.90
2022-11-06T11:33:01.199Z,86.30
2022-11-06T11:35:30.910Z,86.00
2022-11-06T11:38:13.491Z,85.90
2022-11-06T11:40:41.291Z,85.80
2022-11-06T11:43:29.224Z,85.60
2022-11-06T11:46:09.092Z,86.60
2022-11-06T11:48:43.646Z,86.50
2022-11-06T11:51:30.841Z,86.20
2022-11-06T11:54:03.408Z,85.90
2022-11-06T11:57:02.329Z,86.60
2022-11-06T11:59:22.909Z,85.70
2022-11-06T12:01:50.827Z,85.90
2022-11-06T12:04:39.044Z,87.50
2022-11-06T12:07:14.823Z,85.50
2022-11-06T12:09:44.834Z,86.40
2022-11-06T12:12:24.074Z,85.60
2022-11-06T12:15:21.226Z,85.90
2022-11-06T12:17:54.986Z,85.30
2022-11-06T12:20:35.439Z,85.20
2022-11-06T12:23:06.254Z,85.30
2022-11-06T12:25:39.655Z,85.40
2022-11-06T12:28:17.413Z,85.30
2022-11-06T12:30:49.530Z,85.80
2022-11-06T12:33:22.681Z,85.70
2022-11-06T12:35:58.962Z,84.80
2022-11-06T12:38:45.532Z,86.10
2022-11-06T12:41:34.721Z,84.40
2022-11-06T12:44:02.902Z,85.20
2022-11-06T12:46:36.247Z,84.90
2022-11-06T12:49:22.101Z,84.50
2022-11-06T12:52:08.067Z,85.50
2022-11-06T12:55:07.726Z,84.90
2022-11-06T12:58:04.612Z,84.70
2022-11-06T13:00:58.150Z,84.80
2022-11-06T13:03:50.415Z,84.50
2022-11-06T13:06:25.556Z,84.50
2022-11-06T13:09:17.467Z,84.80
2022-11-06T13:12:08.930Z,84.40
2022-11-06T13:15:06.185Z,85.10
2022-11-06T13:17:58.135Z,84.70
2022-11-06T13:20:28.364Z,86.30
2022-11-06T13:22:58.705Z,84.60
2022-11-06T13:25:28.730Z,86.00
2022-11-06T13:28:02.873Z,84.60
2022-11-06T13:30:32.092Z,86.30
2022-11-06T13:33:20.888Z,85.10
2022-11-06T13:35:48.401Z,85.30
2022-11-06T13:38:37.340Z,86.70
2022-11-06T13:41:29.630Z,85.70
2022-11-06T13:44:05.266Z,85.30
2022-11-06T13:46:38.419Z,85.90
2022-11-06T13:49:16.866Z,85.00
2022-11-06T13:52:03.777Z,87.10
2022-11-06T13:54:44.518Z,85.20
2022-11-06T13:57:38.093Z,85.30
2022-11-06T14:00:40.791Z,86.90
2022-11-06T14:03:40.549Z,86.50
2022-11-06T14:06:16.142Z,87.70
2022-11-06T14:08:45.974Z,86.60
2022-11-06T14:11:14.968Z,86.00
2022-11-06T14:14:02.406Z,86.70
2022-11-06T14:16:39.627Z,86.60
2022-11-06T14:19:22.437Z,86.40
2022-11-06T14:22:09.044Z,86.60
2022-11-06T14:24:41.060Z,86.80
2022-11-06T14:27:40.408Z,86.40
2022-11-06T14:31:10.587Z,87.10
2022-11-06T14:33:49.203Z,87.60
2022-11-06T14:36:25.549Z,87.80
2022-11-06T14:38:53.770Z,89.00
2022-11-06T14:41:36.393Z,88.00
2022-11-06T14:44:11.403Z,88.90
2022-11-06T14:46:39.293Z,87.30
2022-11-06T14:49:16.136Z,87.00
2022-11-06T14:51:43.553Z,88.30
2022-11-06T14:54:24.406Z,87.90
2022-11-06T14:56:55.584Z,88.40
2022-11-06T14:59:35.829Z,88.20
2022-11-06T15:02:37.275Z,88.70
2022-11-06T15:05:16.547Z,89.20
2022-11-06T15:08:04.935Z,88.70
2022-11-06T15:10:43.385Z,87.80
2022-11-06T15:13:17.923Z,89.30
2022-11-06T15:15:46.763Z,87.70
2022-11-06T15:18:25.040Z,89.20
2022-11-06T15:20:59.986Z,89.60
2022-11-06T15:23:57.667Z,88.10
2022-11-06T15:26:28.801Z,89.70
2022-11-06T15:29:16.113Z,89.30
2022-11-06T15:31:53.837Z,89.00
2022-11-06T15:34:34.657Z,88.50
2022-11-06T15:37:12.419Z,88.80
2022-11-06T15:40:00.216Z,90.20
2022-11-06T15:42:32.168Z,89.20
2022-11-06T15:45:20.858Z,89.30
2022-11-06T15:48:04.516Z,89.70
2022-11-06T15:50:33.934Z,89.80
2022-11-06T15:53:14.090Z,89.00
2022-11-06T15:56:03.402Z,90.30
2022-11-06T15:58:33.443Z,90.20
2022-11-06T16:01:02.760Z,90.10
2022-11-06T16:03:33.539Z,89.70
2022-11-06T16:06:03.906Z,90.20
2022-11-06T16:08:32.809Z,89.20
2022-11-06T16:11:02.113Z,89.50
2022-11-06T16:13:31.635Z,90.30
2022-11-06T16:16:05.021Z,89.30
2022-11-06T16:18:45.418Z,90.40
2022-11-06T16:24:18.829Z,88.70
2022-11-06T16:26:51.550Z,90.10
2022-11-06T16:29:26.822Z,90.00
2022-11-06T16:32:01.564Z,90.90
2022-11-06T16:34:45.732Z,91.50
2022-11-06T16:37:16.075Z,90.20
2022-11-06T16:39:50.247Z,90.30
2022-11-06T16:42:25.141Z,89.60
2022-11-06T16:45:21.041Z,90.20
2022-11-06T16:48:06.531Z,90.40
2022-11-06T16:50:46.221Z,90.90
2022-11-06T16:53:19.963Z,90.60
2022-11-06T16:56:21.879Z,90.70
2022-11-06T16:58:55.340Z,91.50
2022-11-06T17:01:23.456Z,90.90
2022-11-06T17:03:59.174Z,90.10
2022-11-06T17:06:30.112Z,90.60
2022-11-06T17:09:07.819Z,90.30
2022-11-06T17:11:35.506Z,90.90
2022-11-06T17:14:19.178Z,90.60
2022-11-06T17:16:51.297Z,90.70
2022-11-06T17:19:20.187Z,90.10
2022-11-06T17:21:48.634Z,90.20
2022-11-06T17:24:35.965Z,90.20
2022-11-06T17:27:03.466Z,90.70
2022-11-06T17:29:30.898Z,90.20
2022-11-06T17:31:58.231Z,90.50
2022-11-06T17:34:25.540Z,90.10
2022-11-06T17:36:53.177Z,90.30
2022-11-06T17:39:20.492Z,90.90
2022-11-06T17:41:48.050Z,90.50
2022-11-06T17:44:15.553Z,90.20
2022-11-06T17:46:45.825Z,90.30
2022-11-06T17:49:18.041Z,90.90
2022-11-06T17:51:59.757Z,90.50
2022-11-06T17:54:30.393Z,90.60
2022-11-06T17:56:59.436Z,90.90
2022-11-06T17:59:26.883Z,90.80
2022-11-06T18:01:55.023Z,90.80
2022-11-06T18:04:28.173Z,91.50
2022-11-06T18:06:55.817Z,90.50
2022-11-06T18:09:24.321Z,91.60
2022-11-06T18:11:53.865Z,91.20
2022-11-06T18:14:23.129Z,91.10
2022-11-06T18:16:51.601Z,90.90
2022-11-06T18:19:22.952Z,90.70
2022-11-06T18:21:51.026Z,91.00
2022-11-06T18:24:18.479Z,91.10
2022-11-06T18:26:45.929Z,91.30
2022-11-06T18:29:14.542Z,91.70
2022-11-06T18:31:44.035Z,90.80
2022-11-06T18:34:19.464Z,90.70
2022-11-06T18:39:56.538Z,92.00
2022-11-06T18:45:22.170Z,92.10
2022-11-06T18:47:51.624Z,91.30
2022-11-06T18:50:19.108Z,93.00
2022-11-06T18:53:03.095Z,92.10
2022-11-06T18:55:55.890Z,91.80
2022-11-06T18:58:27.339Z,91.20
2022-11-06T19:01:00.524Z,92.10
2022-11-06T19:03:29.325Z,92.20
2022-11-06T19:05:59.907Z,92.10
2022-11-06T19:08:34.460Z,92.40
2022-11-06T19:11:11.141Z,91.90
2022-11-06T19:13:43.435Z,91.50
2022-11-06T19:16:16.141Z,91.80
2022-11-06T19:18:43.890Z,91.20
2022-11-06T19:21:12.560Z,91.50
2022-11-06T19:23:42.168Z,91.50
2022-11-06T19:26:31.886Z,91.40
2022-11-06T19:33:27.383Z,91.40
2022-11-06T19:36:03.986Z,94.10
2022-11-06T19:38:31.862Z,92.50
2022-11-06T19:41:01.716Z,93.00
2022-11-06T19:44:48.715Z,92.60
2022-11-06T19:47:16.718Z,91.70
2022-11-06T19:57:59.756Z,92.00
2022-11-06T20:00:27.177Z,91.80
2022-11-06T20:02:54.609Z,91.70
2022-11-06T20:05:22.077Z,91.70
2022-11-06T20:07:49.719Z,91.40
2022-11-06T20:10:17.156Z,92.40
2022-11-06T20:12:44.554Z,91.70
2022-11-06T20:15:12.049Z,92.50
2022-11-06T20:17:39.732Z,92.50
2022-11-06T20:20:07.887Z,92.90
2022-11-06T20:22:35.463Z,91.50
2022-11-06T20:25:03.074Z,92.90
2022-11-06T20:27:30.548Z,93.00
2022-11-06T20:30:00.406Z,92.40
2022-11-06T20:32:28.006Z,91.70
2022-11-06T20:35:19.711Z,91.90
2022-11-06T20:38:19.973Z,92.00
2022-11-06T20:40:47.450Z,92.40
2022-11-06T20:43:15.201Z,91.80
2022-11-06T20:45:43.207Z,92.10
2022-11-06T20:48:12.010Z,93.20
2022-11-06T20:50:39.683Z,94.00
2022-11-06T20:53:07.491Z,94.20
2022-11-06T21:00:45.981Z,92.30
2022-11-06T21:09:01.208Z,92.40
2022-11-06T21:25:04.534Z,92.50
2022-11-06T21:27:38.767Z,92.20
2022-11-06T21:30:19.972Z,93.20
2022-11-06T21:32:47.565Z,95.70
2022-11-06T21:35:15.259Z,93.90
2022-11-06T21:37:42.631Z,92.60
2022-11-06T21:40:12.155Z,93.20
2022-11-06T21:42:39.601Z,93.20
2022-11-06T21:45:09.795Z,92.60
2022-11-06T21:47:39.848Z,93.80
2022-11-06T21:50:07.926Z,94.00
2022-11-06T21:52:56.792Z,92.60
2022-11-06T21:55:43.013Z,93.30
2022-11-06T21:58:10.821Z,92.50
2022-11-06T22:00:39.405Z,94.70
2022-11-06T22:03:06.989Z,93.30
2022-11-06T22:05:34.580Z,94.30
2022-11-06T22:08:02.289Z,94.00
2022-11-06T22:10:31.257Z,94.10
2022-11-06T22:13:02.527Z,94.10
2022-11-06T22:15:30.143Z,93.60
2022-11-06T22:17:57.620Z,93.60
2022-11-06T22:20:25.320Z,95.30
2022-11-06T22:22:52.957Z,95.50
2022-11-06T22:25:20.693Z,94.70
2022-11-06T22:27:48.505Z,94.70
2022-11-06T22:30:16.160Z,94.60
2022-11-06T22:32:44.975Z,95.20
2022-11-06T22:35:12.508Z,93.30
2022-11-06T22:37:40.189Z,95.10
2022-11-06T22:40:12.100Z,94.60
2022-11-06T22:42:39.830Z,92.90
2022-11-06T22:45:08.341Z,95.70
2022-11-06T22:47:38.334Z,93.80
2022-11-06T22:50:06.261Z,94.00
2022-11-06T22:52:33.813Z,93.10
2022-11-06T22:55:04.193Z,95.30
2022-11-06T22:57:33.068Z,95.30
2022-11-06T23:00:00.626Z,95.80
2022-11-06T23:02:28.675Z,95.10
2022-11-06T23:04:56.217Z,93.70
2022-11-06T23:07:28.396Z,92.90
2022-11-06T23:09:56.095Z,94.30
2022-11-06T23:12:29.764Z,95.70
2022-11-06T23:15:02.297Z,95.80
2022-11-06T23:17:31.880Z,92.70
2022-11-06T23:19:59.435Z,94.30
2022-11-06T23:22:39.833Z,95.80
2022-11-06T23:25:14.709Z,94.20
2022-11-06T23:27:50.620Z,94.30
2022-11-06T23:30:19.101Z,94.80
2022-11-06T23:32:52.272Z,93.30
2022-11-06T23:35:32.606Z,96.10
2022-11-06T23:38:07.232Z,96.50
2022-11-06T23:40:55.496Z,94.80
2022-11-06T23:46:32.990Z,95.70
2022-11-06T23:49:27.911Z,94.30
2022-11-06T23:52:12.558Z,94.70
2022-11-06T23:55:07.729Z,94.40
2022-11-06T23:58:08.506Z,94.20
